Time;durP1;ratioP1;P1;durP2;ratioP2;P2;SDS_P1;SDS_P2;PMS_P1;PMS_P2;Temp;Humidity;BMP_temperature;BMP_pressure;BME280_temperature;BME280_humidity;BME280_pressure;Samples;Min_cycle;Max_cycle;Signal;HPM_P1;HPM_P2
2022/01/20 00:00:53;;;;;;;;;;;1.60;99.90;;;;;;4981877;28;20452;-87
2022/01/20 00:03:22;;;;;;;;;;;1.60;99.90;;;;;;4998668;28;19926;-87
2022/01/20 00:27:27;;;;;;;;;;;1.50;99.90;;;;;;5003347;28;19932;-87
2022/01/20 00:32:35;;;;;;;;;;;1.40;99.90;;;;;;5001125;28;19971;-86
2022/01/20 00:37:27;;;;;;;;;;;1.40;99.90;;;;;;4998131;28;19926;-88
2022/01/20 00:39:54;;;;;;;;;;;1.40;99.90;;;;;;4980008;28;19917;-87
2022/01/20 00:42:21;;;;;;;;;;;1.40;99.90;;;;;;4981227;28;19920;-86
2022/01/20 00:44:47;;;;;;;;;;;1.40;99.90;;;;;;5000795;28;19955;-86
2022/01/20 00:47:14;;;;;;;;;;;1.40;99.90;;;;;;5000649;28;19922;-88
2022/01/20 00:49:40;;;;;;;;;;;1.40;99.90;;;;;;4997142;28;19922;-87
2022/01/20 00:52:06;;;;;;;;;;;1.40;99.90;;;;;;5000504;28;19928;-86
2022/01/20 00:54:32;;;;;;;;;;;1.40;99.90;;;;;;5002262;28;19917;-86
2022/01/20 00:56:57;;;;;;;;;;;1.30;99.90;;;;;;4998611;28;19924;-88
2022/01/20 00:59:23;;;;;;;;;;;1.30;99.90;;;;;;4997455;28;19928;-89
2022/01/20 01:01:49;;;;;;;;;;;1.30;99.90;;;;;;4981196;28;20021;-88
2022/01/20 01:04:15;;;;;;;;;;;1.30;99.90;;;;;;4997637;28;20416;-86
2022/01/20 01:09:25;;;;;;;;;;;1.40;99.90;;;;;;4995662;28;19925;-86
2022/01/20 01:11:53;;;;;;;;;;;1.30;99.90;;;;;;4997475;28;19918;-89
2022/01/20 01:14:20;;;;;;;;;;;1.30;99.90;;;;;;5000472;28;19929;-85
2022/01/20 01:24:33;;;;;;;;;;;1.10;99.90;;;;;;5003498;28;20455;-87
2022/01/20 01:26:59;;;;;;;;;;;1.00;99.90;;;;;;5003385;28;19970;-87
2022/01/20 01:29:46;;;;;;;;;;;1.00;99.90;;;;;;4996087;28;20370;-87
2022/01/20 01:32:13;;;;;;;;;;;1.10;99.90;;;;;;5003327;28;19921;-86
2022/01/20 01:34:41;;;;;;;;;;;1.10;99.90;;;;;;5002560;28;20032;-87
2022/01/20 01:37:24;;;;;;;;;;;1.00;99.90;;;;;;4984095;28;20373;-89
2022/01/20 01:39:49;;;;;;;;;;;1.00;99.90;;;;;;4984553;28;19956;-88
2022/01/20 01:42:21;;;;;;;;;;;1.00;99.90;;;;;;5004411;28;19957;-86
2022/01/20 01:44:46;;;;;;;;;;;1.10;99.90;;;;;;4984664;28;19967;-86
2022/01/20 01:47:12;;;;;;;;;;;1.10;99.90;;;;;;5004178;28;19922;-86
2022/01/20 01:49:37;;;;;;;;;;;1.20;99.90;;;;;;4985607;28;19926;-87
2022/01/20 01:52:03;;;;;;;;;;;1.10;99.90;;;;;;4999407;28;19918;-87
2022/01/20 01:54:30;;;;;;;;;;;1.00;99.90;;;;;;4989311;28;19918;-87
2022/01/20 01:56:55;;;;;;;;;;;1.00;99.90;;;;;;4987096;28;20027;-88
2022/01/20 01:59:21;;;;;;;;;;;1.00;99.90;;;;;;5000207;28;19921;-88
2022/01/20 02:01:47;;;;;;;;;;;1.00;99.90;;;;;;4985470;28;19972;-88
2022/01/20 02:04:19;;;;;;;;;;;1.00;99.90;;;;;;4971969;28;19930;-87
2022/01/20 02:09:31;;;;;;;;;;;1.00;99.90;;;;;;4962179;28;19957;-87
2022/01/20 02:20:14;;;;;;;;;;;0.80;99.90;;;;;;4963815;28;19924;-87
2022/01/20 02:22:40;;;;;;;;;;;0.80;99.90;;;;;;4946667;28;19953;-89
2022/01/20 02:25:17;;;;;;;;;;;0.80;99.90;;;;;;4962036;28;19926;-87
2022/01/20 02:27:42;;;;;;;;;;;0.70;99.90;;;;;;4962472;28;19981;-87
2022/01/20 02:30:08;;;;;;;;;;;0.80;99.90;;;;;;4962542;28;19926;-87
2022/01/20 02:32:33;;;;;;;;;;;0.80;99.90;;;;;;4963540;28;19922;-87
2022/01/20 02:34:59;;;;;;;;;;;0.90;99.90;;;;;;4963302;28;20013;-87
2022/01/20 02:37:24;;;;;;;;;;;0.80;99.90;;;;;;4960711;28;19914;-87
2022/01/20 02:45:08;;;;;;;;;;;0.70;99.90;;;;;;4963299;28;19933;-87
2022/01/20 02:47:34;;;;;;;;;;;0.70;99.90;;;;;;4960293;28;19919;-87
2022/01/20 02:50:00;;;;;;;;;;;0.80;99.90;;;;;;4962548;28;20298;-86
2022/01/20 02:52:27;;;;;;;;;;;0.70;99.90;;;;;;4963973;28;20357;-86
2022/01/20 02:54:54;;;;;;;;;;;0.70;99.90;;;;;;4962840;28;19997;-87
2022/01/20 02:57:20;;;;;;;;;;;0.70;99.90;;;;;;4963619;28;19964;-86
2022/01/20 02:59:46;;;;;;;;;;;0.70;99.90;;;;;;4962317;28;19962;-86
2022/01/20 03:02:11;;;;;;;;;;;0.60;99.90;;;;;;4962598;28;19929;-87
2022/01/20 03:04:38;;;;;;;;;;;0.60;99.90;;;;;;4989813;28;19921;-86
2022/01/20 03:07:04;;;;;;;;;;;0.60;99.90;;;;;;4982333;28;20364;-86
2022/01/20 03:09:29;;;;;;;;;;;0.60;99.90;;;;;;5001011;28;19976;-87
2022/01/20 03:11:55;;;;;;;;;;;0.50;99.90;;;;;;5004203;28;20313;-88
2022/01/20 03:14:20;;;;;;;;;;;0.50;99.90;;;;;;5000490;28;19913;-88
2022/01/20 03:16:47;;;;;;;;;;;0.60;99.90;;;;;;4999244;28;20405;-87
2022/01/20 03:19:13;;;;;;;;;;;0.60;99.90;;;;;;5001967;28;19934;-87
2022/01/20 03:21:40;;;;;;;;;;;0.60;99.90;;;;;;5000519;28;20301;-87
2022/01/20 03:24:06;;;;;;;;;;;0.50;99.90;;;;;;4982483;28;19914;-87
2022/01/20 03:26:31;;;;;;;;;;;0.50;99.90;;;;;;4996985;28;19948;-86
2022/01/20 03:28:57;;;;;;;;;;;0.60;99.90;;;;;;4996732;28;19913;-87
2022/01/20 03:31:23;;;;;;;;;;;0.50;99.90;;;;;;4999560;28;19933;-87
2022/01/20 03:33:49;;;;;;;;;;;0.50;99.90;;;;;;4985309;28;19932;-86
2022/01/20 03:36:14;;;;;;;;;;;0.50;99.90;;;;;;5002900;28;19917;-86
2022/01/20 03:38:40;;;;;;;;;;;0.50;99.90;;;;;;5000251;28;19975;-87
2022/01/20 03:41:06;;;;;;;;;;;0.60;99.90;;;;;;4983249;28;20396;-87
2022/01/20 03:43:31;;;;;;;;;;;0.60;99.90;;;;;;5006331;28;19914;-87
2022/01/20 03:45:59;;;;;;;;;;;0.60;99.90;;;;;;4984868;28;19967;-86
2022/01/20 03:48:28;;;;;;;;;;;0.60;99.90;;;;;;4998508;28;20020;-87
2022/01/20 03:51:00;;;;;;;;;;;0.60;99.90;;;;;;5002175;28;20012;-87
2022/01/20 03:53:30;;;;;;;;;;;0.60;99.90;;;;;;4982439;28;19915;-87
2022/01/20 03:55:57;;;;;;;;;;;0.50;99.90;;;;;;4984216;28;20202;-87
2022/01/20 03:58:22;;;;;;;;;;;0.50;99.90;;;;;;5005111;28;19922;-87
2022/01/20 04:00:48;;;;;;;;;;;0.50;99.90;;;;;;4985405;28;19929;-86
2022/01/20 04:03:15;;;;;;;;;;;0.50;99.90;;;;;;5003103;28;19913;-86
2022/01/20 04:05:56;;;;;;;;;;;0.50;99.90;;;;;;4982810;28;19954;-87
2022/01/20 04:08:23;;;;;;;;;;;0.60;99.90;;;;;;4998824;28;19989;-87
2022/01/20 04:10:48;;;;;;;;;;;0.50;99.90;;;;;;4984304;28;19918;-88
2022/01/20 04:13:14;;;;;;;;;;;0.50;99.90;;;;;;4979370;28;20384;-88
2022/01/20 04:15:41;;;;;;;;;;;0.50;99.90;;;;;;4982670;28;20289;-88
2022/01/20 04:18:12;;;;;;;;;;;0.50;99.90;;;;;;5000349;28;19921;-86
2022/01/20 04:20:37;;;;;;;;;;;0.50;99.90;;;;;;4996355;28;19917;-87
2022/01/20 04:23:03;;;;;;;;;;;0.50;99.90;;;;;;4999903;28;19975;-88
2022/01/20 04:25:29;;;;;;;;;;;0.50;99.90;;;;;;4983630;28;20251;-87
2022/01/20 04:27:54;;;;;;;;;;;0.50;99.90;;;;;;4981794;28;19924;-86
2022/01/20 04:30:20;;;;;;;;;;;0.50;99.90;;;;;;4996686;28;19914;-87
2022/01/20 04:32:45;;;;;;;;;;;0.50;99.90;;;;;;4999615;28;20377;-87
2022/01/20 04:35:11;;;;;;;;;;;0.50;99.90;;;;;;5001342;28;19922;-87
2022/01/20 04:37:37;;;;;;;;;;;0.50;99.90;;;;;;4998902;28;19925;-87
2022/01/20 04:40:03;;;;;;;;;;;0.40;99.90;;;;;;5003062;28;20004;-88
2022/01/20 04:42:31;;;;;;;;;;;0.40;99.90;;;;;;4997775;28;20361;-87
2022/01/20 04:45:02;;;;;;;;;;;0.50;99.90;;;;;;4984335;28;19918;-87
2022/01/20 04:47:40;;;;;;;;;;;0.50;99.90;;;;;;5001108;28;19929;-88
2022/01/20 04:58:18;;;;;;;;;;;0.60;99.90;;;;;;5001384;28;19982;-87
2022/01/20 05:00:43;;;;;;;;;;;0.60;99.90;;;;;;4998149;28;20554;-89
2022/01/20 05:03:09;;;;;;;;;;;0.60;99.90;;;;;;4981422;28;20484;-88
2022/01/20 05:05:34;;;;;;;;;;;0.60;99.90;;;;;;4999952;28;20287;-88
2022/01/20 05:08:00;;;;;;;;;;;0.60;99.90;;;;;;5004444;28;20171;-87
2022/01/20 05:10:28;;;;;;;;;;;0.60;99.90;;;;;;4984163;28;19922;-89
2022/01/20 05:15:20;;;;;;;;;;;0.50;99.90;;;;;;5005564;28;20365;-87
2022/01/20 05:17:45;;;;;;;;;;;0.60;99.90;;;;;;4998712;28;19929;-85
2022/01/20 05:20:11;;;;;;;;;;;0.70;99.90;;;;;;4985841;28;19917;-87
2022/01/20 05:22:37;;;;;;;;;;;0.70;99.90;;;;;;5001486;28;19918;-89
2022/01/20 05:25:03;;;;;;;;;;;0.70;99.90;;;;;;4992675;28;19917;-87
2022/01/20 05:27:29;;;;;;;;;;;0.70;99.90;;;;;;5010608;28;19917;-87
2022/01/20 05:29:55;;;;;;;;;;;0.70;99.90;;;;;;4985287;28;19925;-88
2022/01/20 05:32:21;;;;;;;;;;;0.70;99.90;;;;;;5001064;28;19976;-87
2022/01/20 05:34:47;;;;;;;;;;;0.70;99.90;;;;;;5000740;28;19914;-87
2022/01/20 05:37:12;;;;;;;;;;;0.70;99.90;;;;;;5000959;28;20151;-87
2022/01/20 05:39:38;;;;;;;;;;;0.60;99.90;;;;;;5003659;28;19944;-87
2022/01/20 05:42:03;;;;;;;;;;;0.70;99.90;;;;;;4999783;28;20349;-86
2022/01/20 05:44:29;;;;;;;;;;;0.70;99.90;;;;;;5001844;28;19924;-87
2022/01/20 05:46:55;;;;;;;;;;;0.70;99.90;;;;;;4993596;28;19949;-88
2022/01/20 05:49:21;;;;;;;;;;;0.70;99.90;;;;;;4981714;28;20386;-86
2022/01/20 05:51:52;;;;;;;;;;;0.70;99.90;;;;;;5006280;28;19918;-88
2022/01/20 05:54:18;;;;;;;;;;;0.60;99.90;;;;;;4979326;28;19964;-88
2022/01/20 05:56:44;;;;;;;;;;;0.60;99.90;;;;;;4994801;28;19952;-86
2022/01/20 05:59:09;;;;;;;;;;;0.60;99.90;;;;;;4994730;28;19968;-88
2022/01/20 06:01:37;;;;;;;;;;;0.70;99.90;;;;;;4996986;28;20608;-88
2022/01/20 06:04:03;;;;;;;;;;;0.70;99.90;;;;;;4997526;28;20382;-88
2022/01/20 06:06:29;;;;;;;;;;;0.70;99.90;;;;;;5004724;28;19924;-86
2022/01/20 06:08:54;;;;;;;;;;;0.70;99.90;;;;;;5013569;28;19920;-88
2022/01/20 06:11:20;;;;;;;;;;;0.80;99.90;;;;;;4983485;28;19922;-87
2022/01/20 06:13:45;;;;;;;;;;;0.70;99.90;;;;;;4987461;28;20649;-87
2022/01/20 06:16:11;;;;;;;;;;;0.70;99.90;;;;;;5000439;28;19952;-87
2022/01/20 06:18:37;;;;;;;;;;;0.70;99.90;;;;;;4987200;28;20370;-87
2022/01/20 06:21:02;;;;;;;;;;;0.70;99.90;;;;;;4996635;28;19925;-86
2022/01/20 06:23:29;;;;;;;;;;;0.80;99.90;;;;;;4979197;28;19925;-85
2022/01/20 06:25:56;;;;;;;;;;;0.80;99.90;;;;;;4997384;28;19913;-86
2022/01/20 06:28:21;;;;;;;;;;;0.70;99.90;;;;;;4983496;28;19957;-88
2022/01/20 06:30:47;;;;;;;;;;;0.80;99.90;;;;;;4985371;28;20288;-88
2022/01/20 06:33:13;;;;;;;;;;;0.80;99.90;;;;;;5002187;28;19921;-87
2022/01/20 06:35:38;;;;;;;;;;;0.80;99.90;;;;;;5002986;28;19913;-86
2022/01/20 06:38:04;;;;;;;;;;;0.80;99.90;;;;;;4981807;28;19928;-87
2022/01/20 06:40:30;;;;;;;;;;;0.70;99.90;;;;;;4979637;28;19924;-87
2022/01/20 06:42:56;;;;;;;;;;;0.70;99.90;;;;;;4988169;28;19917;-88
2022/01/20 06:45:23;;;;;;;;;;;0.70;99.90;;;;;;4982408;28;20024;-87
2022/01/20 06:47:48;;;;;;;;;;;0.70;99.90;;;;;;5006099;28;20019;-89
2022/01/20 06:50:15;;;;;;;;;;;0.70;99.90;;;;;;4985149;28;19960;-88
2022/01/20 06:52:41;;;;;;;;;;;0.80;99.90;;;;;;5001194;28;19914;-87
2022/01/20 06:55:10;;;;;;;;;;;0.80;99.90;;;;;;4983196;28;19918;-86
2022/01/20 06:57:36;;;;;;;;;;;0.80;99.90;;;;;;5005875;28;19936;-85
2022/01/20 07:00:03;;;;;;;;;;;0.70;99.90;;;;;;5004301;28;19913;-88
2022/01/20 07:02:29;;;;;;;;;;;0.70;99.90;;;;;;5004428;28;19925;-87
2022/01/20 07:04:54;;;;;;;;;;;0.70;99.90;;;;;;5001458;28;20407;-88
2022/01/20 07:07:20;;;;;;;;;;;0.70;99.90;;;;;;5000338;28;19922;-87
2022/01/20 07:09:46;;;;;;;;;;;0.70;99.90;;;;;;5002574;28;20345;-87
2022/01/20 07:12:11;;;;;;;;;;;0.70;99.90;;;;;;4992612;28;19914;-86
2022/01/20 07:14:37;;;;;;;;;;;0.70;99.90;;;;;;4996494;28;19924;-86
2022/01/20 07:17:04;;;;;;;;;;;0.80;99.90;;;;;;5003033;28;19913;-87
2022/01/20 07:19:29;;;;;;;;;;;0.80;99.90;;;;;;5001689;28;19957;-88
2022/01/20 07:21:55;;;;;;;;;;;0.80;99.90;;;;;;5020545;28;19927;-86
2022/01/20 07:24:20;;;;;;;;;;;0.80;99.90;;;;;;5013553;28;20338;-87
2022/01/20 07:26:47;;;;;;;;;;;0.80;99.90;;;;;;5003094;28;19913;-83
2022/01/20 07:29:13;;;;;;;;;;;0.80;99.90;;;;;;4982384;28;19918;-87
2022/01/20 07:31:38;;;;;;;;;;;0.80;99.90;;;;;;5001036;28;19921;-87
2022/01/20 07:34:04;;;;;;;;;;;0.80;99.90;;;;;;4983147;28;19940;-88
2022/01/20 07:36:29;;;;;;;;;;;0.90;99.90;;;;;;4997516;28;20634;-87
2022/01/20 07:38:55;;;;;;;;;;;0.90;99.90;;;;;;4994666;28;20629;-87
2022/01/20 07:41:20;;;;;;;;;;;0.90;99.90;;;;;;5003155;28;20007;-88
2022/01/20 07:43:46;;;;;;;;;;;0.90;99.90;;;;;;5001910;28;20334;-87
2022/01/20 07:46:12;;;;;;;;;;;0.80;99.90;;;;;;4998224;28;20385;-86
2022/01/20 07:48:37;;;;;;;;;;;0.90;99.90;;;;;;4998721;28;19918;-86
2022/01/20 07:51:05;;;;;;;;;;;0.90;99.90;;;;;;4998883;28;19920;-84
2022/01/20 07:53:32;;;;;;;;;;;0.90;99.90;;;;;;4996109;28;19918;-89
2022/01/20 07:55:57;;;;;;;;;;;0.90;99.90;;;;;;4996138;28;20381;-88
2022/01/20 07:58:23;;;;;;;;;;;1.00;99.90;;;;;;4994980;28;19921;-85
2022/01/20 08:00:48;;;;;;;;;;;1.00;99.90;;;;;;4996955;28;21356;-87
2022/01/20 08:03:14;;;;;;;;;;;1.00;99.90;;;;;;4984982;28;20364;-87
2022/01/20 08:05:39;;;;;;;;;;;1.10;99.90;;;;;;4985839;28;19992;-86
2022/01/20 08:08:05;;;;;;;;;;;1.00;99.90;;;;;;4992844;28;19921;-86
2022/01/20 08:10:31;;;;;;;;;;;1.00;99.90;;;;;;4997102;28;19936;-87
2022/01/20 08:12:56;;;;;;;;;;;1.00;99.90;;;;;;4980579;28;19924;-87
2022/01/20 08:15:22;;;;;;;;;;;1.00;99.90;;;;;;4985607;28;19988;-87
2022/01/20 08:17:47;;;;;;;;;;;1.10;99.90;;;;;;4991040;28;20594;-88
2022/01/20 08:20:13;;;;;;;;;;;1.10;99.90;;;;;;4976096;28;19914;-85
2022/01/20 08:22:39;;;;;;;;;;;1.10;99.90;;;;;;5002301;28;20376;-87
2022/01/20 08:25:15;;;;;;;;;;;1.20;99.90;;;;;;4982288;28;19914;-86
2022/01/20 08:27:42;;;;;;;;;;;1.10;99.90;;;;;;4997488;28;20017;-86
2022/01/20 08:30:09;;;;;;;;;;;1.10;99.90;;;;;;4983430;28;19918;-87
2022/01/20 08:32:35;;;;;;;;;;;1.30;99.90;;;;;;4997384;28;19972;-87
2022/01/20 08:35:04;;;;;;;;;;;1.40;99.90;;;;;;5000991;28;20412;-88
2022/01/20 08:37:30;;;;;;;;;;;1.50;99.90;;;;;;4979019;28;19946;-88
2022/01/20 08:39:56;;;;;;;;;;;1.50;99.90;;;;;;4981164;28;19918;-87
2022/01/20 08:42:22;;;;;;;;;;;1.50;99.90;;;;;;4997489;28;20400;-87
2022/01/20 08:44:48;;;;;;;;;;;1.60;99.90;;;;;;4998350;28;19984;-87
2022/01/20 08:47:17;;;;;;;;;;;1.70;99.90;;;;;;4997146;28;20541;-88
2022/01/20 08:49:46;;;;;;;;;;;1.60;99.90;;;;;;4995957;28;19918;-89
2022/01/20 08:52:11;;;;;;;;;;;1.60;99.90;;;;;;5001172;28;20447;-87
2022/01/20 08:54:37;;;;;;;;;;;1.60;99.90;;;;;;4988087;28;19921;-89
2022/01/20 08:57:03;;;;;;;;;;;1.60;99.90;;;;;;4979565;28;20266;-89
2022/01/20 08:59:28;;;;;;;;;;;1.60;99.90;;;;;;4997318;28;19928;-87
2022/01/20 09:01:54;;;;;;;;;;;1.70;99.90;;;;;;5001498;28;19925;-86
2022/01/20 09:04:20;;;;;;;;;;;1.80;99.90;;;;;;5000360;28;20385;-88
2022/01/20 09:06:45;;;;;;;;;;;1.80;99.90;;;;;;4999285;28;19917;-86
2022/01/20 09:09:11;;;;;;;;;;;1.80;99.90;;;;;;4992335;28;20456;-87
2022/01/20 09:11:44;;;;;;;;;;;1.70;99.90;;;;;;4981023;28;20359;-87
2022/01/20 09:16:53;;;;;;;;;;;1.80;99.90;;;;;;4998022;28;20510;-88
2022/01/20 09:19:19;;;;;;;;;;;1.80;99.90;;;;;;4997453;28;19929;-87
2022/01/20 09:21:45;;;;;;;;;;;1.80;99.90;;;;;;4986677;28;19918;-86
2022/01/20 09:24:11;;;;;;;;;;;1.70;99.90;;;;;;4983184;28;19918;-85
2022/01/20 09:26:36;;;;;;;;;;;1.60;99.90;;;;;;5001367;28;19926;-89
2022/01/20 09:29:02;;;;;;;;;;;1.50;99.90;;;;;;4982558;28;19921;-86
2022/01/20 09:31:32;;;;;;;;;;;1.50;99.90;;;;;;4971583;28;20453;-85
2022/01/20 09:33:58;;;;;;;;;;;1.50;99.90;;;;;;5001918;28;19941;-89
2022/01/20 09:36:23;;;;;;;;;;;1.60;99.90;;;;;;4999939;28;20369;-86
2022/01/20 09:38:49;;;;;;;;;;;1.70;99.90;;;;;;4977453;28;20423;-86
2022/01/20 09:41:15;;;;;;;;;;;1.70;99.90;;;;;;4981149;28;20747;-88
2022/01/20 09:43:40;;;;;;;;;;;1.80;99.90;;;;;;4997269;28;19935;-86
2022/01/20 09:46:06;;;;;;;;;;;1.80;99.90;;;;;;4980419;28;20021;-87
2022/01/20 09:48:32;;;;;;;;;;;1.90;99.90;;;;;;5007134;28;19914;-86
2022/01/20 09:51:00;;;;;;;;;;;2.20;99.90;;;;;;4974181;28;19989;-86
2022/01/20 09:53:26;;;;;;;;;;;2.40;99.90;;;;;;4998847;28;19949;-85
2022/01/20 09:55:52;;;;;;;;;;;2.30;99.90;;;;;;4998967;28;19940;-87
2022/01/20 09:58:17;;;;;;;;;;;2.30;99.90;;;;;;4983940;28;19917;-88
2022/01/20 10:00:44;;;;;;;;;;;2.10;99.90;;;;;;4998280;28;19918;-86
2022/01/20 10:03:12;;;;;;;;;;;2.00;99.90;;;;;;5000393;28;19913;-88
2022/01/20 10:05:51;;;;;;;;;;;2.00;99.90;;;;;;4982104;28;19926;-86
2022/01/20 10:08:21;;;;;;;;;;;2.10;99.90;;;;;;5004954;28;19943;-85
2022/01/20 10:10:47;;;;;;;;;;;2.10;99.90;;;;;;4997134;28;20029;-86
2022/01/20 10:13:13;;;;;;;;;;;2.10;99.90;;;;;;5001243;28;20020;-86
2022/01/20 10:15:38;;;;;;;;;;;2.20;99.90;;;;;;5002002;28;19921;-86
2022/01/20 10:18:09;;;;;;;;;;;2.20;99.90;;;;;;4982950;28;19922;-84
2022/01/20 10:20:35;;;;;;;;;;;2.20;99.90;;;;;;4997932;28;20012;-87
2022/01/20 10:23:01;;;;;;;;;;;2.30;99.90;;;;;;5002225;28;20016;-86
2022/01/20 10:25:32;;;;;;;;;;;2.50;99.90;;;;;;4990345;28;19918;-85
2022/01/20 10:27:58;;;;;;;;;;;2.90;99.90;;;;;;4993780;28;20373;-84
2022/01/20 10:30:25;;;;;;;;;;;3.00;99.90;;;;;;4976788;28;19918;-84
2022/01/20 10:32:52;;;;;;;;;;;3.10;99.90;;;;;;4979082;28;19949;-85
2022/01/20 10:35:18;;;;;;;;;;;3.00;99.90;;;;;;4983659;28;19973;-89
2022/01/20 10:37:58;;;;;;;;;;;2.90;99.90;;;;;;4997992;28;20016;-86
2022/01/20 10:40:24;;;;;;;;;;;2.80;99.90;;;;;;4985752;28;19918;-84
2022/01/20 10:42:49;;;;;;;;;;;3.00;99.90;;;;;;4996081;28;19926;-87
2022/01/20 10:45:23;;;;;;;;;;;3.00;99.90;;;;;;4983866;28;19918;-86
2022/01/20 10:47:49;;;;;;;;;;;3.00;99.90;;;;;;4984409;28;19996;-86
2022/01/20 10:50:17;;;;;;;;;;;3.30;99.90;;;;;;4995762;28;19920;-86
2022/01/20 10:52:44;;;;;;;;;;;3.60;99.90;;;;;;5011665;28;19925;-85
2022/01/20 10:55:25;;;;;;;;;;;3.60;99.90;;;;;;5011033;28;19922;-85
2022/01/20 10:57:51;;;;;;;;;;;3.70;99.90;;;;;;4985000;28;20296;-84
2022/01/20 11:00:19;;;;;;;;;;;3.50;99.90;;;;;;4998062;28;19917;-87
2022/01/20 11:03:03;;;;;;;;;;;3.50;99.90;;;;;;4998309;28;19925;-86
2022/01/20 11:05:30;;;;;;;;;;;3.50;99.90;;;;;;4998840;28;19925;-87
2022/01/20 11:07:56;;;;;;;;;;;3.70;99.90;;;;;;4982644;28;19917;-87
2022/01/20 11:10:24;;;;;;;;;;;3.60;99.90;;;;;;4997475;28;19975;-87
2022/01/20 11:12:49;;;;;;;;;;;3.70;99.90;;;;;;4991481;28;19976;-86
2022/01/20 11:15:16;;;;;;;;;;;3.70;98.50;;;;;;4972728;28;20093;-86
2022/01/20 11:17:42;;;;;;;;;;;3.70;97.00;;;;;;4998106;28;20020;-86
2022/01/20 11:20:10;;;;;;;;;;;3.80;96.70;;;;;;5000911;28;19948;-86
2022/01/20 11:22:36;;;;;;;;;;;3.90;98.40;;;;;;4979197;28;19938;-87
2022/01/20 11:25:07;;;;;;;;;;;3.80;97.20;;;;;;4999083;28;19964;-87
2022/01/20 11:27:34;;;;;;;;;;;3.80;94.80;;;;;;4983420;28;19917;-86
2022/01/20 11:30:01;;;;;;;;;;;3.70;96.70;;;;;;4999140;28;19928;-85
2022/01/20 11:32:29;;;;;;;;;;;3.70;97.30;;;;;;4980955;28;19922;-87
2022/01/20 11:34:55;;;;;;;;;;;3.70;97.90;;;;;;4985673;28;19914;-87
2022/01/20 11:37:23;;;;;;;;;;;3.80;97.50;;;;;;5001208;28;20246;-86
2022/01/20 11:39:51;;;;;;;;;;;3.80;98.00;;;;;;4997772;28;19936;-87
2022/01/20 11:42:24;;;;;;;;;;;3.60;95.30;;;;;;4999801;28;19972;-85
2022/01/20 11:44:50;;;;;;;;;;;3.60;96.80;;;;;;4999071;28;19917;-88
2022/01/20 11:47:15;;;;;;;;;;;3.60;96.10;;;;;;4982437;28;20270;-85
2022/01/20 11:49:44;;;;;;;;;;;3.70;96.80;;;;;;4999775;28;20356;-86
2022/01/20 11:52:10;;;;;;;;;;;3.80;96.20;;;;;;4998369;28;19921;-87
2022/01/20 11:54:40;;;;;;;;;;;3.80;97.40;;;;;;4980195;28;19939;-86
2022/01/20 11:57:06;;;;;;;;;;;3.80;97.20;;;;;;4998136;28;19917;-85
2022/01/20 11:59:43;;;;;;;;;;;3.60;96.70;;;;;;4977974;28;19921;-88
2022/01/20 12:02:09;;;;;;;;;;;3.60;95.70;;;;;;4979228;28;19918;-87
2022/01/20 12:04:38;;;;;;;;;;;3.70;97.10;;;;;;4999651;28;19921;-87
2022/01/20 12:07:05;;;;;;;;;;;3.70;95.20;;;;;;4997409;28;19979;-89
2022/01/20 12:09:34;;;;;;;;;;;3.70;94.10;;;;;;4975096;28;19930;-85
2022/01/20 12:12:00;;;;;;;;;;;3.90;95.10;;;;;;4994817;28;19944;-85
2022/01/20 12:14:32;;;;;;;;;;;3.90;94.40;;;;;;4999760;28;20378;-85
2022/01/20 12:17:01;;;;;;;;;;;4.00;93.20;;;;;;4979337;28;19928;-89
2022/01/20 12:19:27;;;;;;;;;;;3.90;93.70;;;;;;4986325;28;19921;-86
2022/01/20 12:21:52;;;;;;;;;;;3.70;92.50;;;;;;4981633;28;19921;-86
2022/01/20 12:24:19;;;;;;;;;;;3.80;92.40;;;;;;4981789;28;19929;-86
2022/01/20 12:26:45;;;;;;;;;;;3.90;95.30;;;;;;4982299;28;20435;-88
2022/01/20 12:29:10;;;;;;;;;;;3.90;91.50;;;;;;4977635;28;20012;-85
2022/01/20 12:31:48;;;;;;;;;;;4.00;94.10;;;;;;4974774;28;20144;-86
2022/01/20 12:34:13;;;;;;;;;;;4.00;92.40;;;;;;5001147;28;19914;-86
2022/01/20 12:36:39;;;;;;;;;;;4.00;92.30;;;;;;4984752;28;19945;-87
2022/01/20 12:39:05;;;;;;;;;;;3.90;91.70;;;;;;4999023;28;19917;-86
2022/01/20 12:41:33;;;;;;;;;;;3.90;92.20;;;;;;4964132;28;19976;-88
2022/01/20 12:44:06;;;;;;;;;;;3.80;92.80;;;;;;4970160;28;19918;-87
2022/01/20 12:46:36;;;;;;;;;;;3.80;92.40;;;;;;4989387;28;19918;-88
2022/01/20 12:49:04;;;;;;;;;;;3.70;91.60;;;;;;4986653;28;19918;-86
2022/01/20 12:51:50;;;;;;;;;;;3.60;93.20;;;;;;4993011;28;20447;-86
2022/01/20 12:54:29;;;;;;;;;;;3.60;91.70;;;;;;4997502;28;20008;-87
2022/01/20 12:56:55;;;;;;;;;;;3.70;91.70;;;;;;4987270;28;20015;-88
2022/01/20 12:59:25;;;;;;;;;;;3.90;92.30;;;;;;4990789;28;19926;-86
2022/01/20 13:01:52;;;;;;;;;;;3.90;91.40;;;;;;4992596;28;20016;-88
2022/01/20 13:04:20;;;;;;;;;;;3.70;91.10;;;;;;4989634;28;20000;-85
2022/01/20 13:06:53;;;;;;;;;;;3.60;92.20;;;;;;4982438;28;19918;-86
2022/01/20 13:09:21;;;;;;;;;;;3.50;93.30;;;;;;4993608;28;19922;-87
2022/01/20 13:11:56;;;;;;;;;;;3.50;93.70;;;;;;4995510;28;19937;-87
2022/01/20 13:14:34;;;;;;;;;;;3.50;93.40;;;;;;5004125;28;19924;-88
2022/01/20 13:17:01;;;;;;;;;;;3.50;94.70;;;;;;4982130;28;19918;-87
2022/01/20 13:19:44;;;;;;;;;;;3.80;94.80;;;;;;4985357;28;19952;-87
2022/01/20 13:22:22;;;;;;;;;;;3.80;93.20;;;;;;4996537;28;19914;-87
2022/01/20 13:24:48;;;;;;;;;;;3.90;92.70;;;;;;4998006;28;19960;-87
2022/01/20 13:27:14;;;;;;;;;;;3.80;92.60;;;;;;4997981;28;19921;-89
2022/01/20 13:29:41;;;;;;;;;;;3.80;92.80;;;;;;4987421;28;19922;-87
2022/01/20 13:32:07;;;;;;;;;;;3.80;93.00;;;;;;5001708;28;20061;-88
2022/01/20 13:34:33;;;;;;;;;;;4.00;92.70;;;;;;5002448;28;19941;-85
2022/01/20 13:36:58;;;;;;;;;;;4.40;92.00;;;;;;5005012;28;19918;-86
2022/01/20 13:39:34;;;;;;;;;;;4.40;90.90;;;;;;5006299;28;19917;-87
2022/01/20 13:42:46;;;;;;;;;;;4.40;90.50;;;;;;4996950;28;19926;-88
2022/01/20 13:45:15;;;;;;;;;;;4.30;89.70;;;;;;5001935;28;19913;-88
2022/01/20 13:47:54;;;;;;;;;;;4.60;91.90;;;;;;5008504;28;19917;-82
2022/01/20 13:50:20;;;;;;;;;;;4.90;90.10;;;;;;5025512;28;19910;-87
2022/01/20 13:52:45;;;;;;;;;;;4.60;87.10;;;;;;5008559;28;19913;-83
2022/01/20 13:55:18;;;;;;;;;;;4.20;89.20;;;;;;5022360;28;20142;-87
2022/01/20 13:57:44;;;;;;;;;;;4.10;90.30;;;;;;5015049;28;19949;-85
2022/01/20 14:00:12;;;;;;;;;;;4.20;90.20;;;;;;4985119;28;19922;-86
2022/01/20 14:02:37;;;;;;;;;;;4.00;90.50;;;;;;5005632;28;19929;-86
2022/01/20 14:05:03;;;;;;;;;;;4.00;91.50;;;;;;4989780;28;19921;-88
2022/01/20 14:07:29;;;;;;;;;;;3.80;93.10;;;;;;4984908;28;19918;-88
2022/01/20 14:09:55;;;;;;;;;;;3.50;93.30;;;;;;5005994;28;20385;-85
2022/01/20 14:12:21;;;;;;;;;;;3.30;94.70;;;;;;4990719;28;19924;-87
2022/01/20 14:14:46;;;;;;;;;;;3.20;94.40;;;;;;5006192;28;19914;-87
2022/01/20 14:17:16;;;;;;;;;;;3.10;96.30;;;;;;5003292;28;19922;-87
2022/01/20 14:19:44;;;;;;;;;;;2.90;98.10;;;;;;5005660;28;19918;-86
2022/01/20 14:22:10;;;;;;;;;;;2.90;98.60;;;;;;4988928;28;19921;-87
2022/01/20 14:24:36;;;;;;;;;;;2.90;98.90;;;;;;5017669;28;19922;-86
2022/01/20 14:27:10;;;;;;;;;;;3.00;98.30;;;;;;5012319;28;19921;-88
2022/01/20 14:29:36;;;;;;;;;;;3.00;98.10;;;;;;5000023;28;20305;-86
2022/01/20 14:32:02;;;;;;;;;;;3.00;99.90;;;;;;4999005;28;19929;-84
2022/01/20 14:34:27;;;;;;;;;;;2.90;98.80;;;;;;4980355;28;19914;-85
2022/01/20 14:36:53;;;;;;;;;;;2.80;99.60;;;;;;5002278;28;20032;-85
2022/01/20 14:39:19;;;;;;;;;;;2.80;99.90;;;;;;4990368;28;19937;-86
2022/01/20 14:41:44;;;;;;;;;;;2.60;99.90;;;;;;5000765;28;19929;-86
2022/01/20 14:44:10;;;;;;;;;;;2.60;99.90;;;;;;5000691;28;20365;-86
2022/01/20 14:46:35;;;;;;;;;;;2.60;99.90;;;;;;5001348;28;19981;-87
2022/01/20 14:49:01;;;;;;;;;;;2.70;99.90;;;;;;5003268;28;20628;-86
2022/01/20 14:51:26;;;;;;;;;;;2.80;99.90;;;;;;4994807;28;19925;-86
2022/01/20 14:53:52;;;;;;;;;;;2.80;99.90;;;;;;4980239;28;20324;-86
2022/01/20 14:56:19;;;;;;;;;;;2.80;99.90;;;;;;4983377;28;19925;-89
2022/01/20 14:58:46;;;;;;;;;;;2.80;99.90;;;;;;4983797;28;19926;-89
2022/01/20 15:01:11;;;;;;;;;;;2.80;99.90;;;;;;5002019;28;19917;-88
2022/01/20 15:03:37;;;;;;;;;;;2.70;99.90;;;;;;5003768;28;19925;-87
2022/01/20 15:06:03;;;;;;;;;;;2.80;99.90;;;;;;4993314;28;19929;-84
2022/01/20 15:08:28;;;;;;;;;;;2.80;99.90;;;;;;4999975;28;20385;-86
2022/01/20 15:10:54;;;;;;;;;;;2.70;99.90;;;;;;4999824;28;19920;-86
2022/01/20 15:13:20;;;;;;;;;;;1.80;99.90;;;;;;5002114;28;20053;-88
2022/01/20 15:15:45;;;;;;;;;;;0.70;99.90;;;;;;4996334;28;19960;-86
2022/01/20 15:18:11;;;;;;;;;;;0.20;99.90;;;;;;5000322;28;19922;-86
2022/01/20 15:20:37;;;;;;;;;;;0.10;99.90;;;;;;4998621;28;20630;-87
2022/01/20 15:23:02;;;;;;;;;;;-0.10;99.90;;;;;;4999109;28;19918;-86
2022/01/20 15:25:28;;;;;;;;;;;-0.10;99.90;;;;;;4993562;28;19914;-88
2022/01/20 15:27:54;;;;;;;;;;;0.00;99.90;;;;;;4967330;28;20397;-87
2022/01/20 15:30:21;;;;;;;;;;;0.00;99.90;;;;;;5001422;28;19970;-86
2022/01/20 15:32:46;;;;;;;;;;;0.00;99.90;;;;;;4986148;28;19920;-89
2022/01/20 15:35:12;;;;;;;;;;;0.10;99.90;;;;;;5004275;28;19917;-87
2022/01/20 15:37:38;;;;;;;;;;;0.00;99.90;;;;;;4984219;28;19923;-88